Belmopan, Belize
Current Conditions -  °F | °C
As of 6:00 PM on Sunday 25 Jan 2015 (Local Time) from MZBZ Reporting Station
Broken Clouds Broken Clouds  
Wind Chill: 75°   Ceiling: 4200
Heat Index: 75°   Visibility: 6mi
Dew Point: 64°   Wind: 5mph
Humidity: 69%   Direction: 40°NE
Pressure: 30.02"   Gusts: NA
Location:  17.25°N, 88.79°W
Report Text: MZBZ 260000Z 04004KT 9999 BKN042 24/18 A3002 Q1016 NOSIG
Loading
Personal Weather Stations






























Interactive Weather Map New forecast layout! Learn more

10-Day Weather Forecast

Advertisements
Track Severe Weather on mobile